Terminal Aerodrome Forecast
Issued by NWS

Home | Current Version | Previous Version | Text Only | Print | Product List | Glossary On
Versions: 1 2 3 4 5 6 7 8 9 10 11 12 13 14 15 16
000
FTUS42 KTAE 230800 AAA
TAFECP
TAF AMD
KECP 230803Z 2308/2406 00000KT P6SM SKC
      TEMPO 2309/2311 4SM BR FEW010
     FM231400 28007KT P6SM SCT035 SCT250
     FM240300 00000KT P6SM SCT250=

USA.gov is the U.S. government's official web portal to all federal, state and local government web resources and services.